Tiempo atmosférico en la estación meteorológica de Artà-Molí den Leu, Illes Balears (110 m.)

Fecha
DESCASC
Temp. máxima en grados centígrados (hora)
DESCASC
Temp. mínima en grados centígrados (hora)
DESCASC
Temp. media en grados centígrados
DESCASC
Racha de viento máxima en m/sg (hora)
DESCASC
Velocidad máxima media en intervalos de 10 minutos(hora)
DESCASC
Precipitaciones diarias en mm
DESCASC
Precipitaciones de 00:00 a 06:00 en mm
DESCASC
Precipitaciones de 06:00 a 12:00 en mm
DESCASC
Precipitaciones de 12:00 a 18:00 en mm
DESCASC
Precipitaciones de 18:00 a 24:00 en mm
DESCASC

Gráficas

Temp. máximas Temp. mínimas Temp. medias Precipitaciones Rachas de viento máximas Velocidades máximas media en intervalos de 10 minutos

Datos horarios

Fecha y hora oficial Temperatura (ºC) Velocidad del viento (km/h) Dirección del viento Racha (km/h) Dirección de racha Precipitación (mm) Presión (hPa) Tendencia (hPa) Humedad (%)
2017-09-24 23:00:00 19.2 -- -- -- -- 0 -- -- 84
2017-09-24 22:00:00 20.4 -- -- -- -- 0 -- -- 82
2017-09-24 21:00:00 21.5 -- -- -- -- 0 -- -- 78
2017-09-24 20:00:00 23.1 -- -- -- -- 0 -- -- 70
2017-09-24 19:00:00 26.3 -- -- -- -- 0 -- -- 60
2017-09-24 18:00:00 27.7 -- -- -- -- 0 -- -- 54
2017-09-24 17:00:00 27.8 -- -- -- -- 0 -- -- 48
2017-09-24 16:00:00 26.7 -- -- -- -- 0 -- -- 67
2017-09-24 15:00:00 26.6 -- -- -- -- 0 -- -- 61
2017-09-24 14:00:00 27 -- -- -- -- 0 -- -- 59
2017-09-24 13:00:00 26.4 -- -- -- -- 0 -- -- 58
2017-09-24 12:00:00 24.8 -- -- -- -- 0 -- -- 64
2017-09-24 11:00:00 21.7 -- -- -- -- 0 -- -- 75
2017-09-24 10:00:00 20.2 -- -- -- -- 0 -- -- 89
2017-09-24 09:00:00 17.2 -- -- -- -- 0 -- -- 97
2017-09-24 08:00:00 15.1 -- -- -- -- 0 -- -- 95
2017-09-24 07:00:00 14.9 -- -- -- -- 0 -- -- 94
2017-09-24 06:00:00 15.7 -- -- -- -- 0 -- -- 95
2017-09-24 05:00:00 14.9 -- -- -- -- 0 -- -- 93
2017-09-24 04:00:00 15.3 -- -- -- -- 0 -- -- 93
2017-09-24 03:00:00 15.8 -- -- -- -- 0 -- -- 93
2017-09-24 02:00:00 16.2 -- -- -- -- 0 -- -- 92
2017-09-24 01:00:00 16.5 -- -- -- -- 0 -- -- 91
2017-09-24 00:00:00 17 -- -- -- -- 0 -- -- 89
2017-09-23 23:00:00 17.8 -- -- -- -- 0 -- -- 86
2017-09-23 22:00:00 19 -- -- -- -- 0 -- -- 83
2017-09-23 21:00:00 20.7 -- -- -- -- 0 -- -- 79
2017-09-23 20:00:00 21.4 -- -- -- -- 0 -- -- 78
2017-09-23 19:00:00 23.1 -- -- -- -- 0 -- -- 69
2017-09-23 18:00:00 24.7 -- -- -- -- 0 -- -- 63
2017-09-23 17:00:00 24.9 -- -- -- -- 0 -- -- 62
2017-09-23 16:00:00 25 -- -- -- -- 0 -- -- 63
2017-09-23 15:00:00 25.7 -- -- -- -- 0 -- -- 56
2017-09-23 14:00:00 24.8 -- -- -- -- 0 -- -- 60
2017-09-23 13:00:00 24.9 -- -- -- -- 0 -- -- 63
2017-09-23 12:00:00 23.3 -- -- -- -- 0 -- -- 66
2017-09-23 11:00:00 22.2 -- -- -- -- 0 -- -- 73
2017-09-23 10:00:00 20.3 -- -- -- -- 0 -- -- 86
2017-09-23 09:00:00 17.3 -- -- -- -- 0 -- -- 96
2017-09-23 08:00:00 15.2 -- -- -- -- 0 -- -- 94
2017-09-23 07:00:00 15.4 -- -- -- -- 0 -- -- 94
2017-09-23 06:00:00 15.6 -- -- -- -- 0 -- -- 94
2017-09-23 05:00:00 15.8 -- -- -- -- 0 -- -- 93
2017-09-23 04:00:00 16.1 -- -- -- -- 0 -- -- 94
2017-09-23 03:00:00 16.4 -- -- -- -- 0 -- -- 92
2017-09-23 02:00:00 16.6 -- -- -- -- 0 -- -- 92
2017-09-23 01:00:00 16.9 -- -- -- -- 0 -- -- 90
2017-09-23 00:00:00 17.6 -- -- -- -- 0 -- -- 89
2017-09-22 23:00:00 18.2 -- -- -- -- 0 -- -- 88
2017-09-22 22:00:00 18.9 -- -- -- -- 0 -- -- 85
2017-09-22 21:00:00 20.2 -- -- -- -- 0 -- -- 80
2017-09-22 20:00:00 21.6 -- -- -- -- 0 -- -- 75
2017-09-22 19:00:00 22.7 -- -- -- -- 0 -- -- 70
2017-09-22 18:00:00 23.8 -- -- -- -- 0 -- -- 64
2017-09-22 17:00:00 23.9 -- -- -- -- 0 -- -- 66
2017-09-22 16:00:00 25.2 -- -- -- -- 0 -- -- 62
2017-09-22 15:00:00 25.2 -- -- -- -- 0 -- -- 61
2017-09-22 14:00:00 23.6 -- -- -- -- 0 -- -- 65
2017-09-22 13:00:00 23.5 -- -- -- -- 0 -- -- 65
2017-09-22 12:00:00 22.5 -- -- -- -- 0 -- -- 70
2017-09-22 11:00:00 21.5 -- -- -- -- 0 -- -- 74
2017-09-22 10:00:00 19.3 -- -- -- -- 0 -- -- 92
2017-09-22 09:00:00 15.1 -- -- -- -- 0 -- -- 96
2017-09-22 08:00:00 14.1 -- -- -- -- 0 -- -- 95
2017-09-22 07:00:00 14.2 -- -- -- -- 0 -- -- 94
2017-09-22 06:00:00 14.3 -- -- -- -- 0 -- -- 93
2017-09-22 05:00:00 14.5 -- -- -- -- 0 -- -- 93
2017-09-22 04:00:00 14.6 -- -- -- -- 0 -- -- 92
2017-09-22 03:00:00 14.9 -- -- -- -- 0 -- -- 90
2017-09-22 02:00:00 15.4 -- -- -- -- 0 -- -- 89
2017-09-22 01:00:00 15.8 -- -- -- -- 0 -- -- 88
2017-09-22 00:00:00 16.4 -- -- -- -- 0 -- -- 87
2017-09-21 23:00:00 17.1 -- -- -- -- 0 -- -- 84
2017-09-21 22:00:00 18.3 -- -- -- -- 0 -- -- 81
2017-09-21 21:00:00 19.8 -- -- -- -- 0 -- -- 76
2017-09-21 20:00:00 21.2 -- -- -- -- 0 -- -- 70
2017-09-21 19:00:00 23.1 -- -- -- -- 0 -- -- 64
2017-09-21 18:00:00 24.6 -- -- -- -- 0 -- -- 58
2017-09-21 17:00:00 25.3 -- -- -- -- 0 -- -- 59
2017-09-21 16:00:00 25.6 -- -- -- -- 0 -- -- 58
2017-09-21 15:00:00 25.5 -- -- -- -- 0 -- -- 58
2017-09-21 14:00:00 25.7 -- -- -- -- 0 -- -- 60
2017-09-21 13:00:00 25.3 -- -- -- -- 0 -- -- 59
2017-09-21 12:00:00 24.5 -- -- -- -- 0 -- -- 61
2017-09-21 11:00:00 21.8 -- -- -- -- 0 -- -- 72
2017-09-21 10:00:00 19.7 -- -- -- -- 0 -- -- 86
2017-09-21 09:00:00 15.5 -- -- -- -- 0 -- -- 97
2017-09-21 08:00:00 13.9 -- -- -- -- 0 -- -- 94
2017-09-21 07:00:00 13.9 -- -- -- -- 0 -- -- 93
2017-09-21 06:00:00 14.2 -- -- -- -- 0 -- -- 93
2017-09-21 05:00:00 14.5 -- -- -- -- 0 -- -- 93
2017-09-21 04:00:00 14.5 -- -- -- -- 0 -- -- 92
2017-09-21 03:00:00 14.6 -- -- -- -- 0 -- -- 90
2017-09-21 02:00:00 15 -- -- -- -- 0 -- -- 89
2017-09-21 01:00:00 15.4 -- -- -- -- 0 -- -- 87
2017-09-21 00:00:00 16.4 -- -- -- -- 0 -- -- 84
2017-09-20 23:00:00 17.4 -- -- -- -- 0 -- -- 81
2017-09-20 22:00:00 18.6 -- -- -- -- 0 -- -- 78
2017-09-20 21:00:00 19.9 -- -- -- -- 0 -- -- 72
2017-09-20 20:00:00 21.3 -- -- -- -- 0 -- -- 67
2017-09-20 19:00:00 22.8 -- -- -- -- 0 -- -- 62
2017-09-20 18:00:00 22.8 -- -- -- -- 0 -- -- 61
2017-09-20 17:00:00 22.9 -- -- -- -- 0 -- -- 59
2017-09-20 16:00:00 24 -- -- -- -- 0 -- -- 56
2017-09-20 15:00:00 22.5 -- -- -- -- 0 -- -- 59
2017-09-20 14:00:00 22 -- -- -- -- 0 -- -- 60
2017-09-20 13:00:00 21 -- -- -- -- 0 -- -- 67
2017-09-20 12:00:00 20.6 -- -- -- -- 0 -- -- 65
2017-09-20 11:00:00 19.4 -- -- -- -- 0 -- -- 69
2017-09-20 10:00:00 17 -- -- -- -- 0 -- -- 86
2017-09-20 09:00:00 14.5 -- -- -- -- 0 -- -- 94
2017-09-20 08:00:00 12.6 -- -- -- -- 0 -- -- 94
2017-09-20 07:00:00 12 -- -- -- -- 0 -- -- 92
2017-09-20 06:00:00 12 -- -- -- -- 0 -- -- 91
2017-09-20 05:00:00 12.3 -- -- -- -- 0 -- -- 91
2017-09-20 04:00:00 12.8 -- -- -- -- 0 -- -- 90
2017-09-20 03:00:00 13.4 -- -- -- -- 0 -- -- 89
2017-09-20 02:00:00 13.7 -- -- -- -- 0 -- -- 89
2017-09-20 01:00:00 13.8 -- -- -- -- 0 -- -- 89
2017-09-20 00:00:00 14.3 -- -- -- -- 0 -- -- 88
2017-09-19 23:00:00 15.4 -- -- -- -- 0 -- -- 86
2017-09-19 22:00:00 16.3 -- -- -- -- 0 -- -- 83
2017-09-19 21:00:00 17.5 -- -- -- -- 0 -- -- 77
2017-09-19 20:00:00 19 -- -- -- -- 0 -- -- 71
2017-09-19 19:00:00 20.1 -- -- -- -- 0 -- -- 68
2017-09-19 18:00:00 21.1 -- -- -- -- 0 -- -- 66
2017-09-19 17:00:00 21.9 -- -- -- -- -- -- -- 67
2017-09-19 16:00:00 20.9 -- -- -- -- 0 -- -- 72
2017-09-19 15:00:00 20.6 -- -- -- -- 0 -- -- 74
2017-09-19 14:00:00 20.4 -- -- -- -- 0 -- -- 72
2017-09-19 13:00:00 21.5 -- -- -- -- 0 -- -- 64
2017-09-19 12:00:00 22.4 -- -- -- -- 0 -- -- 58
2017-09-19 11:00:00 20.4 -- -- -- -- 0 -- -- --
2017-09-19 10:00:00 18.1 -- -- -- -- 0 -- -- 82
2017-09-19 09:00:00 16 -- -- -- -- 0 -- -- 92
2017-09-19 08:00:00 15 -- -- -- -- 0 -- -- 91
2017-09-19 07:00:00 14.5 -- -- -- -- 0 -- -- 92
2017-09-19 06:00:00 14.6 -- -- -- -- 0 -- -- 91
2017-09-19 05:00:00 14.7 -- -- -- -- 0 -- -- 89
2017-09-19 04:00:00 15.3 -- -- -- -- 0 -- -- 86
2017-09-19 03:00:00 16.1 -- -- -- -- 0 -- -- 83
2017-09-19 02:00:00 17.4 -- -- -- -- 0 -- -- 76
2017-09-19 01:00:00 18.2 -- -- -- -- -- -- -- 77
2017-09-19 00:00:00 18.4 -- -- -- -- 0 -- -- 82
2017-09-18 23:00:00 18.6 -- -- -- -- 0 -- -- 84
2017-09-18 22:00:00 18.8 -- -- -- -- 0 -- -- 83
2017-09-18 21:00:00 19.4 -- -- -- -- 0 -- -- 82
2017-09-18 20:00:00 20 -- -- -- -- 0 -- -- 81
2017-09-18 19:00:00 20.8 -- -- -- -- 0 -- -- 79
2017-09-18 18:00:00 22.3 -- -- -- -- 0 -- -- 74
2017-09-18 17:00:00 26.3 -- -- -- -- 0 -- -- 59
2017-09-18 16:00:00 26.5 -- -- -- -- 0 -- -- 57
2017-09-18 15:00:00 26.9 -- -- -- -- 0 -- -- 56
2017-09-18 14:00:00 26.7 -- -- -- -- 0 -- -- 57
2017-09-18 13:00:00 25.8 -- -- -- -- 0 -- -- 61
2017-09-18 12:00:00 24.4 -- -- -- -- 0 -- -- 69
2017-09-18 11:00:00 22.4 -- -- -- -- 0 -- -- 82
2017-09-18 10:00:00 20.7 -- -- -- -- 0 -- -- 96
2017-09-18 09:00:00 19.3 -- -- -- -- 0 -- -- 95
2017-09-18 08:00:00 17.5 -- -- -- -- 0 -- -- 96
2017-09-18 07:00:00 15.9 -- -- -- -- 0 -- -- 96
2017-09-18 06:00:00 15.6 -- -- -- -- 0 -- -- 94
2017-09-18 05:00:00 15.8 -- -- -- -- 0 -- -- 94
2017-09-18 04:00:00 16 -- -- -- -- 0 -- -- 93
2017-09-18 03:00:00 16.2 -- -- -- -- 0 -- -- 93
2017-09-18 02:00:00 16.2 -- -- -- -- 0 -- -- 92
2017-09-18 01:00:00 16.2 -- -- -- -- 0 -- -- 91
2017-09-18 00:00:00 16.7 -- -- -- -- 0 -- -- 89
2017-09-17 23:00:00 17.1 -- -- -- -- 0 -- -- 86
2017-09-17 22:00:00 18.3 -- -- -- -- 0 -- -- 81
2017-09-17 21:00:00 19.7 -- -- -- -- 0 -- -- 76
2017-09-17 20:00:00 21.4 -- -- -- -- 0 -- -- 68
2017-09-17 19:00:00 23.3 -- -- -- -- 0 -- -- 60
2017-09-17 18:00:00 24.7 -- -- -- -- 0 -- -- 54
2017-09-17 17:00:00 25.2 -- -- -- -- 0 -- -- 51
2017-09-17 16:00:00 25.4 -- -- -- -- 0 -- -- 53
2017-09-17 15:00:00 24.6 -- -- -- -- 0 -- -- 56
2017-09-17 14:00:00 24.7 -- -- -- -- 0 -- -- 53
2017-09-17 13:00:00 24 -- -- -- -- 0 -- -- 46
2017-09-17 12:00:00 22.3 -- -- -- -- 0 -- -- 54
2017-09-17 11:00:00 19.2 -- -- -- -- 0 -- -- 60
2017-09-17 10:00:00 17.4 -- -- -- -- 0 -- -- 82
2017-09-17 09:00:00 13.5 -- -- -- -- 0 -- -- 96
2017-09-17 08:00:00 12.1 -- -- -- -- 0 -- -- 92
2017-09-17 07:00:00 13.2 -- -- -- -- 0 -- -- 91
2017-09-17 06:00:00 12.8 -- -- -- -- 0 -- -- 91
2017-09-17 05:00:00 13.9 -- -- -- -- 0 -- -- 85
2017-09-17 04:00:00 12.7 -- -- -- -- 0 -- -- 96
2017-09-17 03:00:00 12.7 -- -- -- -- 0 -- -- 95
2017-09-17 02:00:00 12.8 -- -- -- -- 0 -- -- 95
2017-09-17 01:00:00 14 -- -- -- -- 0 -- -- 95
2017-09-17 00:00:00 13.8 -- -- -- -- 0 -- -- 93
2017-09-16 23:00:00 14.3 -- -- -- -- 0 -- -- 92
2017-09-16 22:00:00 15.2 -- -- -- -- 0 -- -- 90
2017-09-16 21:00:00 16.3 -- -- -- -- 0 -- -- 88
2017-09-16 20:00:00 18.6 -- -- -- -- 0 -- -- 81
2017-09-16 19:00:00 19.4 -- -- -- -- 0 -- -- 74
2017-09-16 18:00:00 19.5 -- -- -- -- 0 -- -- 76
2017-09-16 17:00:00 19 -- -- -- -- 0 -- -- 80
2017-09-16 16:00:00 18.5 -- -- -- -- 0 -- -- 83
2017-09-16 15:00:00 17.4 -- -- -- -- 0.4 -- -- 89
2017-09-16 14:00:00 17.6 -- -- -- -- 0.4 -- -- 90
2017-09-16 13:00:00 17.5 -- -- -- -- 0.6 -- -- 92
2017-09-16 12:00:00 17.1 -- -- -- -- 1 -- -- 90
2017-09-16 11:00:00 16.7 -- -- -- -- 0.2 -- -- 88
2017-09-16 10:00:00 16.9 -- -- -- -- 0 -- -- 86
2017-09-16 09:00:00 16.1 -- -- -- -- 0 -- -- 91
2017-09-16 08:00:00 15.7 -- -- -- -- 0.2 -- -- 91
2017-09-16 07:00:00 15.6 -- -- -- -- 0.4 -- -- 91
2017-09-16 06:00:00 15.2 -- -- -- -- 0 -- -- 92
2017-09-16 05:00:00 15.3 -- -- -- -- 0 -- -- 95
2017-09-16 04:00:00 15.2 -- -- -- -- 6.6 -- -- 96
2017-09-16 03:00:00 15.2 -- -- -- -- 10.8 -- -- 95
2017-09-16 02:00:00 15.2 -- -- -- -- 6.8 -- -- 95
2017-09-16 01:00:00 15.3 -- -- -- -- 14.6 -- -- 94
2017-09-16 00:00:00 16 -- -- -- -- 3.8 -- -- 90
2017-09-15 23:00:00 16.7 -- -- -- -- 0 -- -- 89
2017-09-15 22:00:00 17.1 -- -- -- -- 0.2 -- -- 88
2017-09-15 21:00:00 17.4 -- -- -- -- 0 -- -- 91
2017-09-15 20:00:00 17.9 -- -- -- -- 0 -- -- 90
2017-09-15 19:00:00 18.4 -- -- -- -- 0 -- -- 88
2017-09-15 18:00:00 18.8 -- -- -- -- 0 -- -- 89
2017-09-15 17:00:00 19 -- -- -- -- 2 -- -- 91
2017-09-15 16:00:00 17.3 -- -- -- -- 19.4 -- -- 92
2017-09-15 15:00:00 19.5 -- -- -- -- 0.4 -- -- 84
2017-09-15 14:00:00 20 -- -- -- -- 0 -- -- 81
2017-09-15 13:00:00 19.5 -- -- -- -- 0.2 -- -- 85
2017-09-15 12:00:00 20.3 -- -- -- -- 0 -- -- 78
2017-09-15 11:00:00 21 -- -- -- -- 0 -- -- 73
2017-09-15 10:00:00 20.8 -- -- -- -- 0 -- -- 72
2017-09-15 09:00:00 20.6 -- -- -- -- 0 -- -- 71
2017-09-15 08:00:00 20.3 -- -- -- -- 0 -- -- 70
2017-09-15 07:00:00 20.2 -- -- -- -- 0 -- -- 71
2017-09-15 06:00:00 20.4 -- -- -- -- 0 -- -- 70
2017-09-15 05:00:00 20.5 -- -- -- -- 0 -- -- 68
2017-09-15 04:00:00 20.4 -- -- -- -- 0 -- -- 69
2017-09-15 03:00:00 20.4 -- -- -- -- 0 -- -- 71
2017-09-15 02:00:00 20.4 -- -- -- -- 0 -- -- 70
2017-09-15 01:00:00 20.6 -- -- -- -- 0 -- -- 71
2017-09-15 00:00:00 20.7 -- -- -- -- 0 -- -- 73
2017-09-14 23:00:00 21.3 -- -- -- -- 0 -- -- 74
2017-09-14 22:00:00 21.7 -- -- -- -- 0 -- -- 76
2017-09-14 21:00:00 21.7 -- -- -- -- 0 -- -- 78
2017-09-14 20:00:00 23.6 -- -- -- -- 0 -- -- 79
2017-09-14 19:00:00 24.8 -- -- -- -- 0 -- -- 75
2017-09-14 18:00:00 27.4 -- -- -- -- 0 -- -- 67
2017-09-14 17:00:00 27.9 -- -- -- -- 0 -- -- 66
2017-09-14 16:00:00 28.5 -- -- -- -- 0 -- -- 63
2017-09-14 15:00:00 29.1 -- -- -- -- 0 -- -- 62
2017-09-14 14:00:00 28.7 -- -- -- -- 0 -- -- 61
2017-09-14 13:00:00 28.4 -- -- -- -- 0 -- -- 61
2017-09-14 12:00:00 27 -- -- -- -- 0 -- -- 66
2017-09-14 11:00:00 24.3 -- -- -- -- 0 -- -- 74
2017-09-14 10:00:00 22.8 -- -- -- -- 0 -- -- 79
2017-09-14 09:00:00 20.4 -- -- -- -- 0 -- -- 91
2017-09-14 08:00:00 18.7 -- -- -- -- 0 -- -- 94
2017-09-14 07:00:00 17.1 -- -- -- -- 0 -- -- 91
2017-09-14 06:00:00 17.4 -- -- -- -- 0 -- -- 91
2017-09-14 05:00:00 17.5 -- -- -- -- 0 -- -- 90
2017-09-14 04:00:00 17.7 -- -- -- -- 0 -- -- 91
2017-09-14 03:00:00 18.1 -- -- -- -- 0 -- -- 88
2017-09-14 02:00:00 18.6 -- -- -- -- 0 -- -- 87
2017-09-14 01:00:00 18.7 -- -- -- -- 0 -- -- 86
2017-09-14 00:00:00 19.3 -- -- -- -- 0 -- -- 84
2017-09-13 23:00:00 20 -- -- -- -- 0 -- -- 82
2017-09-13 22:00:00 20.9 -- -- -- -- 0 -- -- 77
2017-09-13 21:00:00 21.8 -- -- -- -- 0 -- -- 74
2017-09-13 20:00:00 23 -- -- -- -- 0 -- -- 69
2017-09-13 19:00:00 24.9 -- -- -- -- 0 -- -- 62
2017-09-13 18:00:00 26.4 -- -- -- -- 0 -- -- 59
2017-09-13 17:00:00 27.4 -- -- -- -- 0 -- -- 56
2017-09-13 16:00:00 27.6 -- -- -- -- 0 -- -- 57
2017-09-13 15:00:00 27.5 -- -- -- -- 0 -- -- 57
2017-09-13 14:00:00 27.4 -- -- -- -- 0 -- -- 57
2017-09-13 13:00:00 26.7 -- -- -- -- 0 -- -- 60
2017-09-13 12:00:00 24.9 -- -- -- -- 0 -- -- 64
2017-09-13 11:00:00 22.3 -- -- -- -- 0 -- -- 71
2017-09-13 10:00:00 20.9 -- -- -- -- 0 -- -- 82
2017-09-13 09:00:00 17 -- -- -- -- 0 -- -- 96
2017-09-13 08:00:00 15.4 -- -- -- -- 0 -- -- 94
2017-09-13 07:00:00 15.7 -- -- -- -- 0 -- -- 94
2017-09-13 06:00:00 16 -- -- -- -- 0 -- -- 93
2017-09-13 05:00:00 16.2 -- -- -- -- 0 -- -- 94
2017-09-13 04:00:00 15.7 -- -- -- -- 0 -- -- 93
2017-09-13 03:00:00 15.9 -- -- -- -- 0 -- -- 91
2017-09-13 02:00:00 16.4 -- -- -- -- 0 -- -- 90
2017-09-13 01:00:00 17.1 -- -- -- -- 0 -- -- 87
2017-09-13 00:00:00 17.9 -- -- -- -- 0 -- -- 87
2017-09-12 23:00:00 18.9 -- -- -- -- 0 -- -- 82
2017-09-12 22:00:00 19.6 -- -- -- -- 0 -- -- 78
2017-09-12 21:00:00 20.2 -- -- -- -- 0 -- -- 77
2017-09-12 20:00:00 21 -- -- -- -- 0 -- -- 73
2017-09-12 19:00:00 21.4 -- -- -- -- 0 -- -- 72
2017-09-12 18:00:00 22.2 -- -- -- -- 0 -- -- 70
2017-09-12 17:00:00 22.7 -- -- -- -- 0 -- -- 68
2017-09-12 16:00:00 22.3 -- -- -- -- 0 -- -- 70
2017-09-12 15:00:00 22.7 -- -- -- -- 0 -- -- 70
2017-09-12 14:00:00 22.6 -- -- -- -- 0 -- -- 69
2017-09-12 13:00:00 22.6 -- -- -- -- 0 -- -- 69
2017-09-12 12:00:00 24 -- -- -- -- 0 -- -- 65
2017-09-12 11:00:00 23.2 -- -- -- -- 0 -- -- 69
2017-09-12 10:00:00 22.5 -- -- -- -- 0 -- -- 69
2017-09-12 09:00:00 22 -- -- -- -- 0 -- -- 75
2017-09-12 08:00:00 22.1 -- -- -- -- 0 -- -- 80
2017-09-12 07:00:00 22.1 -- -- -- -- 0 -- -- 84
2017-09-12 06:00:00 21.5 -- -- -- -- 0 -- -- 89
2017-09-12 05:00:00 17.7 -- -- -- -- 0 -- -- 87
2017-09-12 04:00:00 17.8 -- -- -- -- 0 -- -- 79
2017-09-12 03:00:00 19.1 -- -- -- -- 0 -- -- 76
2017-09-12 02:00:00 20.8 -- -- -- -- 0 -- -- 68
2017-09-12 01:00:00 21.4 -- -- -- -- 0 -- -- 69
2017-09-12 00:00:00 21.2 -- -- -- -- 0 -- -- 64
2017-09-11 23:00:00 22 -- -- -- -- 0 -- -- 63
2017-09-11 22:00:00 22.6 -- -- -- -- 0 -- -- 64
2017-09-11 21:00:00 23.4 -- -- -- -- 0 -- -- 62
2017-09-11 20:00:00 25.8 -- -- -- -- 0 -- -- 55
2017-09-11 19:00:00 28 -- -- -- -- 0 -- -- 47
2017-09-11 18:00:00 29.5 -- -- -- -- 0 -- -- 42
2017-09-11 17:00:00 30.2 -- -- -- -- 0 -- -- 43
2017-09-11 16:00:00 30 -- -- -- -- 0 -- -- 49
2017-09-11 15:00:00 29.4 -- -- -- -- 0 -- -- 42
2017-09-11 14:00:00 29 -- -- -- -- 0 -- -- 46
2017-09-11 13:00:00 27.3 -- -- -- -- 0 -- -- 48
2017-09-11 12:00:00 26.5 -- -- -- -- 0 -- -- 52
2017-09-11 11:00:00 24 -- -- -- -- 0 -- -- 58
2017-09-11 10:00:00 22.1 -- -- -- -- 0 -- -- 72
2017-09-11 09:00:00 19.1 -- -- -- -- 0 -- -- 82
2017-09-11 08:00:00 17.4 -- -- -- -- 0 -- -- 82
2017-09-11 07:00:00 16.7 -- -- -- -- 0 -- -- 80
2017-09-11 06:00:00 15.7 -- -- -- -- 0 -- -- 79
2017-09-11 05:00:00 17 -- -- -- -- 0 -- -- 72
2017-09-11 04:00:00 18 -- -- -- -- 0 -- -- 69
2017-09-11 03:00:00 17.3 -- -- -- -- 0 -- -- 72
2017-09-11 02:00:00 18 -- -- -- -- 0 -- -- 71
2017-09-11 01:00:00 17 -- -- -- -- 0 -- -- 74
2017-09-11 00:00:00 15.5 -- -- -- -- 0 -- -- 79
2017-09-10 23:00:00 14.8 -- -- -- -- 0 -- -- 84
2017-09-10 22:00:00 16 -- -- -- -- 0 -- -- 80
2017-09-10 21:00:00 17.6 -- -- -- -- 0 -- -- 74
2017-09-10 20:00:00 20.5 -- -- -- -- 0 -- -- 64
2017-09-10 19:00:00 21.9 -- -- -- -- 0 -- -- 55
2017-09-10 18:00:00 22.2 -- -- -- -- 0 -- -- 53
2017-09-10 17:00:00 21.9 -- -- -- -- 0 -- -- 58
2017-09-10 16:00:00 21.2 -- -- -- -- 0 -- -- 62
2017-09-10 15:00:00 19.1 -- -- -- -- 0 -- -- 71
2017-09-10 14:00:00 15.6 -- -- -- -- 0.2 -- -- 93
2017-09-10 13:00:00 14.6 -- -- -- -- 13.6 -- -- 93
2017-09-10 12:00:00 15.5 -- -- -- -- 4.6 -- -- 94
2017-09-10 11:00:00 15.3 -- -- -- -- 0.8 -- -- 93
2017-09-10 10:00:00 15 -- -- -- -- 1.2 -- -- 95
2017-09-10 09:00:00 14.5 -- -- -- -- 1 -- -- 95
2017-09-10 08:00:00 14.8 -- -- -- -- 15.6 -- -- 95
2017-09-10 07:00:00 15.3 -- -- -- -- 5.4 -- -- 94
2017-09-10 06:00:00 15.4 -- -- -- -- 0 -- -- 94
2017-09-10 05:00:00 15.5 -- -- -- -- 0.2 -- -- 93
2017-09-10 04:00:00 15.5 -- -- -- -- 0.8 -- -- 94
2017-09-10 03:00:00 15.3 -- -- -- -- 5.8 -- -- 91
2017-09-10 02:00:00 16.2 -- -- -- -- 0.6 -- -- 91
2017-09-10 01:00:00 17.9 -- -- -- -- 0 -- -- 93
2017-09-10 00:00:00 18.1 -- -- -- -- 0.6 -- -- 92
2017-09-09 23:00:00 18.3 -- -- -- -- 1 -- -- 90
2017-09-09 22:00:00 18.7 -- -- -- -- 0.4 -- -- 84
2017-09-09 21:00:00 20.3 -- -- -- -- 0 -- -- 74
2017-09-09 20:00:00 21.2 -- -- -- -- 0 -- -- 70
2017-09-09 19:00:00 22.4 -- -- -- -- 0 -- -- 75
2017-09-09 18:00:00 25.2 -- -- -- -- 0 -- -- 66
2017-09-09 17:00:00 28 -- -- -- -- 0 -- -- 56
2017-09-09 16:00:00 28.3 -- -- -- -- 0 -- -- 52
2017-09-09 15:00:00 28.9 -- -- -- -- 0 -- -- 55
2017-09-09 14:00:00 29.2 -- -- -- -- 0 -- -- 56
2017-09-09 13:00:00 29 -- -- -- -- 0 -- -- 58
2017-09-09 12:00:00 28.5 -- -- -- -- 0 -- -- 58
2017-09-09 11:00:00 25.9 -- -- -- -- 0 -- -- 68
2017-09-09 10:00:00 24.2 -- -- -- -- 0 -- -- 84
2017-09-09 09:00:00 22.3 -- -- -- -- 0 -- -- 94
2017-09-09 08:00:00 20.5 -- -- -- -- 0 -- -- 95
2017-09-09 07:00:00 20.2 -- -- -- -- 0 -- -- 94
2017-09-09 06:00:00 19.9 -- -- -- -- 0 -- -- 93
2017-09-09 05:00:00 20.4 -- -- -- -- 0 -- -- 92
2017-09-09 04:00:00 20.5 -- -- -- -- 0 -- -- 93
2017-09-09 03:00:00 19.8 -- -- -- -- 0 -- -- 94
2017-09-09 02:00:00 19.9 -- -- -- -- 0 -- -- 94
2017-09-09 01:00:00 19.9 -- -- -- -- 0 -- -- 92
2017-09-09 00:00:00 19.9 -- -- -- -- 0 -- -- 90
2017-09-08 23:00:00 20.8 -- -- -- -- 0 -- -- 88
2017-09-08 22:00:00 21.4 -- -- -- -- 0 -- -- 84
2017-09-08 21:00:00 23 -- -- -- -- 0 -- -- 82
2017-09-08 20:00:00 24.7 -- -- -- -- 0 -- -- 77
2017-09-08 19:00:00 25.5 -- -- -- -- 0 -- -- 71
2017-09-08 18:00:00 26 -- -- -- -- 0 -- -- 72
2017-09-08 17:00:00 26.9 -- -- -- -- 0 -- -- 69
2017-09-08 16:00:00 27.2 -- -- -- -- 0 -- -- 67
2017-09-08 15:00:00 27 -- -- -- -- 0 -- -- 63
2017-09-08 14:00:00 25.4 -- -- -- -- 0 -- -- 70
2017-09-08 13:00:00 25.2 -- -- -- -- 0 -- -- 70
2017-09-08 12:00:00 24.9 -- -- -- -- 0 -- -- 76
2017-09-08 11:00:00 23.4 -- -- -- -- 0 -- -- 74
2017-09-08 10:00:00 21.4 -- -- -- -- 0 -- -- 94
2017-09-08 09:00:00 19.1 -- -- -- -- 0 -- -- 97
2017-09-08 08:00:00 18.1 -- -- -- -- 0 -- -- 96
2017-09-08 07:00:00 17.8 -- -- -- -- 0 -- -- 95
2017-09-08 06:00:00 17.7 -- -- -- -- 0 -- -- 94
2017-09-08 05:00:00 18.1 -- -- -- -- 0 -- -- 93
2017-09-08 04:00:00 18.6 -- -- -- -- 0 -- -- 92
2017-09-08 03:00:00 19.2 -- -- -- -- 0 -- -- 92
2017-09-08 02:00:00 19.7 -- -- -- -- 0 -- -- 91
2017-09-08 01:00:00 20.3 -- -- -- -- 0 -- -- 90
2017-09-08 00:00:00 20.7 -- -- -- -- 0 -- -- 88
2017-09-07 23:00:00 21.1 -- -- -- -- 0 -- -- 86
2017-09-07 22:00:00 21.4 -- -- -- -- 0 -- -- 82
2017-09-07 21:00:00 21.8 -- -- -- -- 0 -- -- 79
2017-09-07 20:00:00 22.3 -- -- -- -- 0 -- -- 77
2017-09-07 19:00:00 22.8 -- -- -- -- 0 -- -- 77
2017-09-07 18:00:00 22.6 -- -- -- -- 0 -- -- 81
2017-09-07 17:00:00 22.8 -- -- -- -- 0 -- -- 75
2017-09-07 16:00:00 23.2 -- -- -- -- 0 -- -- 74
2017-09-07 15:00:00 23.4 -- -- -- -- 0 -- -- 74
2017-09-07 14:00:00 23.1 -- -- -- -- 0 -- -- 77
2017-09-07 13:00:00 23.7 -- -- -- -- 0 -- -- 76
2017-09-07 12:00:00 22.5 -- -- -- -- 0 -- -- 87
2017-09-07 11:00:00 18.4 -- -- -- -- 0 -- -- 96
2017-09-07 10:00:00 17.1 -- -- -- -- 12.8 -- -- 94
2017-09-07 09:00:00 19.8 -- -- -- -- 2.4 -- -- 90
2017-09-07 08:00:00 20.2 -- -- -- -- 0.8 -- -- 92
2017-09-07 07:00:00 19.4 -- -- -- -- 0 -- -- 90
2017-09-07 06:00:00 19.1 -- -- -- -- 0 -- -- 89
2017-09-07 05:00:00 19.4 -- -- -- -- 0 -- -- 89
2017-09-07 04:00:00 19.8 -- -- -- -- 0 -- -- 87
2017-09-07 03:00:00 19.9 -- -- -- -- 0 -- -- 87
2017-09-07 02:00:00 20.5 -- -- -- -- 0 -- -- 84
2017-09-07 01:00:00 21.2 -- -- -- -- 0 -- -- 84
2017-09-07 00:00:00 21.5 -- -- -- -- 0 -- -- 82
2017-09-06 23:00:00 22 -- -- -- -- 0 -- -- 80
2017-09-06 22:00:00 23 -- -- -- -- 0 -- -- 77
2017-09-06 21:00:00 23.8 -- -- -- -- 0 -- -- 75
2017-09-06 20:00:00 24.7 -- -- -- -- 0 -- -- 72
2017-09-06 19:00:00 26.2 -- -- -- -- 0 -- -- 62
2017-09-06 18:00:00 27.1 -- -- -- -- 0 -- -- 61
2017-09-06 17:00:00 25.6 -- -- -- -- 0 -- -- 65
2017-09-06 16:00:00 26.3 -- -- -- -- 0 -- -- 63
2017-09-06 15:00:00 27.3 -- -- -- -- 0 -- -- 67
2017-09-06 14:00:00 28.4 -- -- -- -- 0 -- -- 62
2017-09-06 13:00:00 27.8 -- -- -- -- 0 -- -- 65
2017-09-06 12:00:00 27.6 -- -- -- -- 0 -- -- 64
2017-09-06 11:00:00 25.7 -- -- -- -- 0 -- -- 74
2017-09-06 10:00:00 24.5 -- -- -- -- 0 -- -- 81
2017-09-06 09:00:00 20.7 -- -- -- -- 0 -- -- 95
2017-09-06 08:00:00 17.9 -- -- -- -- 0 -- -- 93
2017-09-06 07:00:00 18 -- -- -- -- 0 -- -- 92
2017-09-06 06:00:00 18.1 -- -- -- -- 0 -- -- 91
2017-09-06 05:00:00 18.4 -- -- -- -- 0 -- -- 91
2017-09-06 04:00:00 18.8 -- -- -- -- 0 -- -- 89
2017-09-06 03:00:00 19.6 -- -- -- -- 0 -- -- 87
2017-09-06 02:00:00 20.2 -- -- -- -- 0 -- -- 87
2017-09-06 01:00:00 20.9 -- -- -- -- 0 -- -- 83
2017-09-06 00:00:00 21.4 -- -- -- -- 0 -- -- 81
2017-09-05 23:00:00 22.7 -- -- -- -- 0 -- -- 79
2017-09-05 22:00:00 23.3 -- -- -- -- 0 -- -- 77
2017-09-05 21:00:00 24.2 -- -- -- -- 0 -- -- 74
2017-09-05 20:00:00 25.5 -- -- -- -- 0 -- -- 68
2017-09-05 19:00:00 27.5 -- -- -- -- 0 -- -- 62
2017-09-05 18:00:00 28.4 -- -- -- -- 0 -- -- 59
2017-09-05 17:00:00 29 -- -- -- -- 0 -- -- 57
2017-09-05 16:00:00 29.3 -- -- -- -- 0 -- -- 56
2017-09-05 15:00:00 30 -- -- -- -- 0 -- -- 53
2017-09-05 14:00:00 29.8 -- -- -- -- 0 -- -- 52
2017-09-05 13:00:00 29.5 -- -- -- -- 0 -- -- 54
2017-09-05 12:00:00 28.3 -- -- -- -- 0 -- -- 56
2017-09-05 11:00:00 25.6 -- -- -- -- 0 -- -- 67
2017-09-05 10:00:00 23.4 -- -- -- -- 0 -- -- 78
2017-09-05 09:00:00 20 -- -- -- -- 0 -- -- 96
2017-09-05 08:00:00 18.1 -- -- -- -- 0 -- -- 94
2017-09-05 07:00:00 17.9 -- -- -- -- 0 -- -- 92
2017-09-05 06:00:00 18.3 -- -- -- -- 0 -- -- 93
2017-09-05 05:00:00 18.3 -- -- -- -- 0 -- -- 92
2017-09-05 04:00:00 18.5 -- -- -- -- 0 -- -- 91
2017-09-05 03:00:00 18.7 -- -- -- -- 0 -- -- 90
2017-09-05 02:00:00 19.1 -- -- -- -- 0 -- -- 88
2017-09-05 01:00:00 19.6 -- -- -- -- 0 -- -- 88
2017-09-05 00:00:00 20.3 -- -- -- -- 0 -- -- 85
2017-09-04 23:00:00 21.3 -- -- -- -- 0 -- -- 82
2017-09-04 22:00:00 22.6 -- -- -- -- 0 -- -- 78
2017-09-04 21:00:00 23.8 -- -- -- -- 0 -- -- 75
2017-09-04 20:00:00 25.4 -- -- -- -- 0 -- -- 69
2017-09-04 19:00:00 26.8 -- -- -- -- 0 -- -- 62
2017-09-04 18:00:00 28.1 -- -- -- -- 0 -- -- 57
2017-09-04 17:00:00 28.1 -- -- -- -- 0 -- -- 57
2017-09-04 16:00:00 28.2 -- -- -- -- 0 -- -- 60
2017-09-04 15:00:00 28.3 -- -- -- -- 0 -- -- 60
2017-09-04 14:00:00 27 -- -- -- -- 0 -- -- 63
2017-09-04 13:00:00 27.5 -- -- -- -- 0 -- -- 63
2017-09-04 12:00:00 26 -- -- -- -- 0 -- -- 67
2017-09-04 11:00:00 24.6 -- -- -- -- 0 -- -- 75
2017-09-04 10:00:00 23.1 -- -- -- -- 0 -- -- 82
2017-09-04 09:00:00 20.6 -- -- -- -- 0 -- -- 91
2017-09-04 08:00:00 19.1 -- -- -- -- 0 -- -- 91
2017-09-04 07:00:00 19.2 -- -- -- -- 0 -- -- 91
2017-09-04 06:00:00 19 -- -- -- -- 0 -- -- 91
2017-09-04 05:00:00 18.8 -- -- -- -- 0 -- -- 90
2017-09-04 04:00:00 18.7 -- -- -- -- 0 -- -- 88
2017-09-04 03:00:00 19.1 -- -- -- -- 0 -- -- 89
2017-09-04 02:00:00 19.1 -- -- -- -- 0 -- -- 88
2017-09-04 01:00:00 19.5 -- -- -- -- 0 -- -- 86
2017-09-04 00:00:00 20.5 -- -- -- -- 0 -- -- 83
2017-09-03 23:00:00 21.5 -- -- -- -- 0 -- -- 78
2017-09-03 22:00:00 22.6 -- -- -- -- 0 -- -- 73
2017-09-03 21:00:00 23.5 -- -- -- -- 0 -- -- 70
2017-09-03 20:00:00 25.3 -- -- -- -- 0 -- -- 64
2017-09-03 19:00:00 26.3 -- -- -- -- 0 -- -- 55
2017-09-03 18:00:00 27.3 -- -- -- -- 0 -- -- 51
2017-09-03 17:00:00 28.3 -- -- -- -- 0 -- -- 49
2017-09-03 16:00:00 30.2 -- -- -- -- 0 -- -- 33
2017-09-03 15:00:00 29 -- -- -- -- 0 -- -- 46
2017-09-03 14:00:00 28.7 -- -- -- -- 0 -- -- 41
2017-09-03 13:00:00 28.2 -- -- -- -- 0 -- -- 39
2017-09-03 12:00:00 26.1 -- -- -- -- 0 -- -- 41
2017-09-03 11:00:00 23.7 -- -- -- -- 0 -- -- 56
2017-09-03 10:00:00 20.9 -- -- -- -- 0 -- -- 72
2017-09-03 09:00:00 17 -- -- -- -- 0 -- -- 94
2017-09-03 08:00:00 15 -- -- -- -- 0 -- -- 92
2017-09-03 07:00:00 15.1 -- -- -- -- 0 -- -- 91
2017-09-03 06:00:00 15.7 -- -- -- -- 0 -- -- 91
2017-09-03 05:00:00 16.3 -- -- -- -- 0 -- -- 91
2017-09-03 04:00:00 16.4 -- -- -- -- 0 -- -- 90
2017-09-03 03:00:00 16.6 -- -- -- -- 0 -- -- 88
2017-09-03 02:00:00 16.9 -- -- -- -- 0 -- -- 87
2017-09-03 01:00:00 17.3 -- -- -- -- 0 -- -- 85
2017-09-03 00:00:00 18 -- -- -- -- 0 -- -- 82
2017-09-02 23:00:00 18.8 -- -- -- -- 0 -- -- 79
2017-09-02 22:00:00 19.6 -- -- -- -- 0 -- -- 77
2017-09-02 21:00:00 20.7 -- -- -- -- 0 -- -- 72
2017-09-02 20:00:00 22.2 -- -- -- -- 0 -- -- 66
2017-09-02 19:00:00 23.8 -- -- -- -- 0 -- -- 60
2017-09-02 18:00:00 23.7 -- -- -- -- 0 -- -- 60
2017-09-02 17:00:00 23.5 -- -- -- -- 0 -- -- 61
2017-09-02 16:00:00 24.1 -- -- -- -- 0 -- -- 59
2017-09-02 15:00:00 24.2 -- -- -- -- 0 -- -- 57
2017-09-02 14:00:00 23.6 -- -- -- -- 0 -- -- 60
2017-09-02 13:00:00 23 -- -- -- -- 0 -- -- 61
2017-09-02 12:00:00 24.6 -- -- -- -- 0 -- -- 61
2017-09-02 11:00:00 21.9 -- -- -- -- 0 -- -- 72
2017-09-02 10:00:00 21.8 -- -- -- -- 0 -- -- 68
2017-09-02 09:00:00 19.3 -- -- -- -- 0 -- -- 84
2017-09-02 08:00:00 17.8 -- -- -- -- 0 -- -- 84
2017-09-02 07:00:00 17.4 -- -- -- -- 0 -- -- 84
2017-09-02 06:00:00 17.5 -- -- -- -- 0 -- -- 82
2017-09-02 05:00:00 18.2 -- -- -- -- 0 -- -- 78
2017-09-02 04:00:00 18.4 -- -- -- -- 0 -- -- 77
2017-09-02 03:00:00 18.6 -- -- -- -- 0 -- -- 81
2017-09-02 02:00:00 19.1 -- -- -- -- 0 -- -- 81
2017-09-02 01:00:00 19.5 -- -- -- -- 0 -- -- 78
2017-09-02 00:00:00 20.1 -- -- -- -- 0 -- -- 76
2017-09-01 23:00:00 20.7 -- -- -- -- 0 -- -- 72
2017-09-01 22:00:00 21.2 -- -- -- -- 0 -- -- 70
2017-09-01 21:00:00 21.7 -- -- -- -- 0 -- -- 67
2017-09-01 20:00:00 22.9 -- -- -- -- 0 -- -- 62
2017-09-01 19:00:00 24 -- -- -- -- 0 -- -- 59
2017-09-01 18:00:00 24.9 -- -- -- -- 0 -- -- 57
2017-09-01 17:00:00 25.4 -- -- -- -- 0 -- -- 57
2017-09-01 16:00:00 25.8 -- -- -- -- 0 -- -- 57
2017-09-01 15:00:00 26 -- -- -- -- 0 -- -- 59
2017-09-01 14:00:00 25.8 -- -- -- -- 0 -- -- 58
2017-09-01 13:00:00 25.1 -- -- -- -- 0 -- -- 61
2017-09-01 12:00:00 24.9 -- -- -- -- 0 -- -- 63
2017-09-01 11:00:00 23.6 -- -- -- -- 0 -- -- 69
2017-09-01 10:00:00 22.7 -- -- -- -- 0 -- -- 72
2017-09-01 09:00:00 22.1 -- -- -- -- 0 -- -- 74
2017-09-01 08:00:00 21.4 -- -- -- -- 0 -- -- 79
2017-09-01 07:00:00 21.3 -- -- -- -- 0 -- -- 80
2017-09-01 06:00:00 21.4 -- -- -- -- 0 -- -- 83
2017-09-01 05:00:00 21.4 -- -- -- -- 0 -- -- 87
2017-09-01 04:00:00 21.2 -- -- -- -- 0 -- -- 93
2017-09-01 03:00:00 19.9 -- -- -- -- 0 -- -- 93
2017-09-01 02:00:00 20.1 -- -- -- -- 0 -- -- 93
2017-09-01 01:00:00 20.4 -- -- -- -- 0 -- -- 93
2017-09-01 00:00:00 20.9 -- -- -- -- 0 -- -- 91
2017-08-31 23:00:00 21.6 -- -- -- -- 0 -- -- 89
2017-08-31 22:00:00 21.8 -- -- -- -- 0 -- -- 90
2017-08-31 21:00:00 22 -- -- -- -- 0 -- -- 88
2017-08-31 20:00:00 22.3 -- -- -- -- 0 -- -- 86
2017-08-31 19:00:00 22.2 -- -- -- -- 0 -- -- 87
2017-08-31 18:00:00 22.1 -- -- -- -- 0 -- -- 89
2017-08-31 17:00:00 22.2 -- -- -- -- 11.4 -- -- 88
2017-08-31 16:00:00 27.3 -- -- -- -- 0 -- -- 68
2017-08-31 15:00:00 30.5 -- -- -- -- 0 -- -- 56
2017-08-31 14:00:00 29.2 -- -- -- -- 0 -- -- 56
2017-08-31 13:00:00 28.5 -- -- -- -- 0 -- -- 60
2017-08-31 12:00:00 27.4 -- -- -- -- 0 -- -- 68
2017-08-31 11:00:00 24.1 -- -- -- -- 0.2 -- -- 89
2017-08-31 10:00:00 22.6 -- -- -- -- 0 -- -- 88
2017-08-31 09:00:00 21.4 -- -- -- -- 0.2 -- -- 89
2017-08-31 08:00:00 21.4 -- -- -- -- 0 -- -- 89
2017-08-31 07:00:00 21.4 -- -- -- -- 0 -- -- 92
2017-08-31 06:00:00 21.6 -- -- -- -- 0 -- -- 92
2017-08-31 05:00:00 22 -- -- -- -- 0 -- -- 92
2017-08-31 04:00:00 22.2 -- -- -- -- 0.2 -- -- 92
2017-08-31 03:00:00 22.5 -- -- -- -- 0.6 -- -- 91
2017-08-31 02:00:00 22.7 -- -- -- -- 0.2 -- -- 87
2017-08-31 01:00:00 22.5 -- -- -- -- 0 -- -- 82
2017-08-31 00:00:00 23 -- -- -- -- 0 -- -- 80
2017-08-30 23:00:00 24.2 -- -- -- -- 0 -- -- 77
2017-08-30 22:00:00 25.1 -- -- -- -- 0 -- -- 72
2017-08-30 21:00:00 26.1 -- -- -- -- 0 -- -- 71
2017-08-30 20:00:00 27.4 -- -- -- -- 0 -- -- 64
2017-08-30 19:00:00 29.1 -- -- -- -- 0 -- -- 60
2017-08-30 18:00:00 28.3 -- -- -- -- 0 -- -- 62
2017-08-30 17:00:00 29.8 -- -- -- -- 0 -- -- 57
2017-08-30 16:00:00 31.1 -- -- -- -- 0 -- -- 52
2017-08-30 15:00:00 31.7 -- -- -- -- 0 -- -- 48
2017-08-30 14:00:00 31.2 -- -- -- -- 0 -- -- 48
2017-08-30 13:00:00 31.8 -- -- -- -- 0 -- -- 45
2017-08-30 12:00:00 30.3 -- -- -- -- 0 -- -- 49
2017-08-30 11:00:00 28.8 -- -- -- -- 0 -- -- 43
2017-08-30 10:00:00 26.2 -- -- -- -- 0 -- -- 53
2017-08-30 09:00:00 24.7 -- -- -- -- 0 -- -- 63
2017-08-30 08:00:00 24 -- -- -- -- 0 -- -- 69
2017-08-30 07:00:00 23.8 -- -- -- -- 0 -- -- 73
2017-08-30 06:00:00 24.1 -- -- -- -- 0 -- -- 70
2017-08-30 05:00:00 25 -- -- -- -- 0 -- -- 69
2017-08-30 04:00:00 25.6 -- -- -- -- 0 -- -- 56
2017-08-30 03:00:00 24.9 -- -- -- -- 0 -- -- 71
2017-08-30 02:00:00 24.9 -- -- -- -- 0 -- -- 76
2017-08-30 01:00:00 25.1 -- -- -- -- 0 -- -- 75
2017-08-30 00:00:00 25.5 -- -- -- -- 0 -- -- 68
2017-08-29 23:00:00 25.7 -- -- -- -- 0 -- -- 70
2017-08-29 22:00:00 26 -- -- -- -- 0 -- -- 74
2017-08-29 21:00:00 26.4 -- -- -- -- 0 -- -- 73
2017-08-29 20:00:00 27.5 -- -- -- -- 0 -- -- 71
2017-08-29 19:00:00 29.2 -- -- -- -- 0 -- -- 63
2017-08-29 18:00:00 30.4 -- -- -- -- 0 -- -- 57
2017-08-29 17:00:00 30.6 -- -- -- -- 0 -- -- 57
2017-08-29 16:00:00 32.7 -- -- -- -- 0 -- -- 55
2017-08-29 15:00:00 33.5 -- -- -- -- 0 -- -- 47
2017-08-29 14:00:00 32.6 -- -- -- -- 0 -- -- 53
2017-08-29 13:00:00 32.1 -- -- -- -- 0 -- -- 57
2017-08-29 12:00:00 31.3 -- -- -- -- 0 -- -- 61
2017-08-29 11:00:00 30.2 -- -- -- -- 0 -- -- 50
2017-08-29 10:00:00 27.8 -- -- -- -- 0 -- -- 59
2017-08-29 09:00:00 24.7 -- -- -- -- 0 -- -- 81
2017-08-29 08:00:00 21.1 -- -- -- -- 0 -- -- 85
2017-08-29 07:00:00 20.2 -- -- -- -- 0 -- -- 80
2017-08-29 06:00:00 21 -- -- -- -- 0 -- -- 78
2017-08-29 05:00:00 21.9 -- -- -- -- 0 -- -- 77
2017-08-29 04:00:00 23 -- -- -- -- 0 -- -- 78
2017-08-29 03:00:00 23.3 -- -- -- -- 0 -- -- 78
2017-08-29 02:00:00 23.7 -- -- -- -- 0 -- -- 78
2017-08-29 01:00:00 24.9 -- -- -- -- 0 -- -- 75
2017-08-29 00:00:00 25.3 -- -- -- -- 0 -- -- 75
2017-08-28 23:00:00 25.6 -- -- -- -- 0 -- -- 79
2017-08-28 22:00:00 26.3 -- -- -- -- 0 -- -- 72
2017-08-28 21:00:00 27.9 -- -- -- -- 0 -- -- 65
2017-08-28 20:00:00 29.7 -- -- -- -- 0 -- -- 59
2017-08-28 19:00:00 30.4 -- -- -- -- 0 -- -- 63
2017-08-28 18:00:00 30.2 -- -- -- -- 0 -- -- 57
2017-08-28 17:00:00 31.2 -- -- -- -- 0 -- -- 55
2017-08-28 16:00:00 31.3 -- -- -- -- 0 -- -- 60
2017-08-28 15:00:00 31.5 -- -- -- -- 0 -- -- 54
2017-08-28 14:00:00 31.3 -- -- -- -- 0 -- -- 42
2017-08-28 13:00:00 31.7 -- -- -- -- 0 -- -- 59
2017-08-28 12:00:00 30.4 -- -- -- -- 0 -- -- 67
2017-08-28 11:00:00 28.6 -- -- -- -- 0 -- -- 73
2017-08-28 10:00:00 26.4 -- -- -- -- 0 -- -- 81
2017-08-28 09:00:00 23.4 -- -- -- -- 0 -- -- 93
2017-08-28 08:00:00 21.3 -- -- -- -- 0 -- -- 91
2017-08-28 07:00:00 21.1 -- -- -- -- 0 -- -- 91
2017-08-28 06:00:00 21 -- -- -- -- 0 -- -- 91
2017-08-28 05:00:00 21.3 -- -- -- -- 0 -- -- 89
2017-08-28 04:00:00 22 -- -- -- -- 0 -- -- 91
2017-08-28 03:00:00 22 -- -- -- -- 0 -- -- 88
2017-08-28 02:00:00 22.4 -- -- -- -- 0 -- -- 88
2017-08-28 01:00:00 23.1 -- -- -- -- 0 -- -- 87
2017-08-28 00:00:00 24 -- -- -- -- 0 -- -- 88
2017-08-27 23:00:00 25.1 -- -- -- -- 0 -- -- 86
2017-08-27 22:00:00 25.8 -- -- -- -- 0 -- -- 85
2017-08-27 21:00:00 26.6 -- -- -- -- 0 -- -- 81
2017-08-27 20:00:00 28.1 -- -- -- -- 0 -- -- 72
2017-08-27 19:00:00 30.1 -- -- -- -- 0 -- -- 60
2017-08-27 18:00:00 31.1 -- -- -- -- 0 -- -- 54
2017-08-27 17:00:00 32.9 -- -- -- -- 0 -- -- 40
2017-08-27 16:00:00 31.3 -- -- -- -- 0 -- -- 46
2017-08-27 15:00:00 32.1 -- -- -- -- 0 -- -- 53
2017-08-27 14:00:00 32.1 -- -- -- -- 0 -- -- 52
2017-08-27 13:00:00 31.4 -- -- -- -- 0 -- -- 54
2017-08-27 12:00:00 28.8 -- -- -- -- 0 -- -- 65
2017-08-27 11:00:00 26.8 -- -- -- -- 0 -- -- 74
2017-08-27 10:00:00 25.5 -- -- -- -- 0 -- -- 82
2017-08-27 09:00:00 24.1 -- -- -- -- 0 -- -- 90
2017-08-27 08:00:00 22.5 -- -- -- -- 0 -- -- 93
2017-08-27 07:00:00 22.8 -- -- -- -- 0 -- -- 94
2017-08-27 06:00:00 21.2 -- -- -- -- 0 -- -- 93
2017-08-27 05:00:00 20.6 -- -- -- -- 0 -- -- 91
2017-08-27 04:00:00 21.1 -- -- -- -- 0 -- -- 90
2017-08-27 03:00:00 21.9 -- -- -- -- 0 -- -- 88
2017-08-27 02:00:00 23 -- -- -- -- 0 -- -- 88
2017-08-27 01:00:00 24.1 -- -- -- -- 0 -- -- 87
2017-08-27 00:00:00 24.4 -- -- -- -- 0 -- -- 88
2017-08-26 23:00:00 23.8 -- -- -- -- 0 -- -- 85
2017-08-26 22:00:00 25 -- -- -- -- 0 -- -- 81
2017-08-26 21:00:00 26.1 -- -- -- -- 0 -- -- 78
2017-08-26 20:00:00 27.5 -- -- -- -- 0 -- -- 76
2017-08-26 19:00:00 28.9 -- -- -- -- 0 -- -- 70
2017-08-26 18:00:00 30.4 -- -- -- -- 0 -- -- 64
2017-08-26 17:00:00 31.1 -- -- -- -- 0 -- -- 60
2017-08-26 16:00:00 31.3 -- -- -- -- 0 -- -- 59
2017-08-26 15:00:00 31.5 -- -- -- -- 0 -- -- 52
2017-08-26 14:00:00 30.9 -- -- -- -- 0 -- -- 58
2017-08-26 13:00:00 30 -- -- -- -- 0 -- -- 64
2017-08-26 12:00:00 28.9 -- -- -- -- 0 -- -- 67
2017-08-26 11:00:00 27 -- -- -- -- 0 -- -- 75
2017-08-26 10:00:00 24.8 -- -- -- -- 0 -- -- 86
2017-08-26 09:00:00 21.7 -- -- -- -- 0 -- -- 95
2017-08-26 08:00:00 19.8 -- -- -- -- 0 -- -- 95
2017-08-26 07:00:00 19.3 -- -- -- -- 0 -- -- 92
2017-08-26 06:00:00 19.8 -- -- -- -- 0 -- -- 93
2017-08-26 05:00:00 20.2 -- -- -- -- 0 -- -- 90
2017-08-26 04:00:00 21 -- -- -- -- 0 -- -- 90
2017-08-26 03:00:00 21.9 -- -- -- -- 0 -- -- 89
2017-08-26 02:00:00 22.9 -- -- -- -- 0 -- -- 89
2017-08-26 01:00:00 23.3 -- -- -- -- 0 -- -- 90
2017-08-26 00:00:00 23.8 -- -- -- -- 0 -- -- 86